Time;durP1;ratioP1;P1;durP2;ratioP2;P2;SDS_P1;SDS_P2;PMS_P1;PMS_P2;Temp;Humidity;BMP_temperature;BMP_pressure;BME280_temperature;BME280_humidity;BME280_pressure;Samples;Min_cycle;Max_cycle;Signal;HPM_P1;HPM_P2
2023/08/05 21:20:50;;;;;;;7.10;4.33;;;18.20;1.00;;;;;;5153880;27;21100;-51
2023/08/05 21:23:16;;;;;;;31.50;17.70;;;18.10;1.00;;;;;;5137582;27;20539;-52
2023/08/05 21:25:42;;;;;;;10.13;6.17;;;18.10;1.00;;;;;;5130256;28;20185;-54
2023/08/05 21:28:08;;;;;;;7.87;5.20;;;18.10;1.00;;;;;;5130231;28;20215;-53
2023/08/05 21:30:33;;;;;;;9.73;4.20;;;18.10;1.00;;;;;;5130176;28;20418;-53
2023/08/05 21:32:59;;;;;;;8.20;4.23;;;18.10;1.00;;;;;;5129607;28;20183;-53
2023/08/05 21:35:25;;;;;;;5.97;4.20;;;18.10;1.00;;;;;;5130178;28;20181;-53
2023/08/05 21:37:50;;;;;;;6.13;3.50;;;18.20;1.00;;;;;;5130446;27;20175;-53
2023/08/05 21:40:16;;;;;;;6.53;3.73;;;18.30;1.00;;;;;;5129736;27;20229;-55
2023/08/05 21:42:41;;;;;;;6.77;3.70;;;18.40;1.00;;;;;;5129980;27;20184;-53
2023/08/05 21:45:07;;;;;;;7.13;4.00;;;18.40;1.00;;;;;;5130011;28;20185;-53
2023/08/05 21:47:33;;;;;;;8.93;3.90;;;18.30;1.00;;;;;;5130084;28;20176;-53
2023/08/05 21:49:58;;;;;;;5.07;3.63;;;18.40;1.00;;;;;;5128593;28;20933;-53
2023/08/05 21:52:24;;;;;;;5.10;3.50;;;18.40;1.00;;;;;;5129646;28;20538;-53
2023/08/05 21:54:50;;;;;;;6.23;3.30;;;18.30;1.00;;;;;;5130326;28;20186;-53
2023/08/05 21:57:15;;;;;;;5.53;3.50;;;18.10;1.00;;;;;;5129790;28;20186;-54
2023/08/05 21:59:41;;;;;;;4.17;3.50;;;18.00;1.00;;;;;;5128425;28;20213;-54
2023/08/05 22:02:06;;;;;;;5.50;3.10;;;17.80;1.00;;;;;;5127893;28;20267;-53
2023/08/05 22:04:32;;;;;;;4.03;3.23;;;17.70;1.00;;;;;;5110190;28;20188;-53
2023/08/05 22:06:57;;;;;;;9.50;3.27;;;17.50;46.50;;;;;;5129728;28;20553;-54
2023/08/05 22:09:24;;;;;;;5.43;3.30;;;17.50;99.90;;;;;;5129509;28;20191;-52
2023/08/05 22:11:49;;;;;;;3.43;3.13;;;17.30;99.90;;;;;;5129981;28;20193;-53
2023/08/05 22:14:15;;;;;;;3.83;3.10;;;17.20;99.90;;;;;;5129505;28;20492;-54
2023/08/05 22:16:40;;;;;;;4.07;3.60;;;17.10;99.90;;;;;;5129611;28;20225;-54
2023/08/05 22:19:06;;;;;;;3.73;3.10;;;17.00;99.90;;;;;;5143038;27;20634;-53
2023/08/05 22:21:31;;;;;;;4.13;3.23;;;17.00;99.90;;;;;;5150226;27;20233;-53
2023/08/05 22:23:57;;;;;;;4.70;3.30;;;16.90;1.00;;;;;;5150047;27;20647;-53
2023/08/05 22:26:25;;;;;;;6.33;4.73;;;16.90;1.00;;;;;;5149029;27;20204;-53
2023/08/05 22:28:51;;;;;;;29.13;22.20;;;16.80;41.70;;;;;;5091199;28;20606;-53
2023/08/05 22:31:16;;;;;;;7.07;4.10;;;16.80;95.60;;;;;;5107579;28;20429;-53
2023/08/05 22:33:42;;;;;;;3.93;3.53;;;16.70;99.90;;;;;;5115284;28;20421;-54
2023/08/05 22:36:12;;;;;;;4.63;3.77;;;16.60;1.00;;;;;;5115235;28;20184;-53
2023/08/05 22:38:38;;;;;;;4.43;3.70;;;16.50;99.90;;;;;;5115114;28;20180;-53
2023/08/05 22:41:04;;;;;;;4.23;3.80;;;16.50;99.90;;;;;;5115136;28;20885;-54
2023/08/05 22:43:30;;;;;;;6.07;4.07;;;16.50;99.90;;;;;;5114987;28;20446;-54
2023/08/05 22:46:02;;;;;;;5.30;4.20;;;16.50;1.00;;;;;;5115054;28;20215;-53
2023/08/05 22:48:27;;;;;;;4.80;4.10;;;16.50;1.00;;;;;;5114817;28;20190;-54
2023/08/05 22:50:53;;;;;;;3.50;3.20;;;16.30;38.40;;;;;;5115515;28;20498;-53
2023/08/05 22:53:20;;;;;;;4.27;3.40;;;16.30;99.90;;;;;;5115524;28;20181;-53
2023/08/05 22:55:48;;;;;;;3.90;3.60;;;16.20;1.00;;;;;;5114977;28;20208;-53
2023/08/05 22:58:15;;;;;;;5.23;3.50;;;16.20;99.90;;;;;;5115221;28;21333;-54
2023/08/05 23:00:40;;;;;;;4.07;3.73;;;16.20;99.90;;;;;;5114784;28;20469;-54
2023/08/05 23:03:06;;;;;;;3.93;3.40;;;16.10;99.90;;;;;;5114678;28;20835;-53
2023/08/05 23:05:41;;;;;;;3.90;3.50;;;16.10;1.00;;;;;;5113239;28;20279;-53
2023/08/05 23:08:06;;;;;;;3.83;3.43;;;16.10;1.00;;;;;;5107268;28;20188;-52
2023/08/05 23:10:32;;;;;;;3.50;3.20;;;16.10;1.00;;;;;;5105195;28;20456;-52
2023/08/05 23:12:57;;;;;;;3.83;3.23;;;16.10;99.90;;;;;;5100065;28;20196;-51
2023/08/05 23:15:23;;;;;;;3.90;3.53;;;16.00;18.60;;;;;;5100328;28;20195;-52
2023/08/05 23:17:49;;;;;;;4.33;3.70;;;16.00;99.90;;;;;;5103124;28;20292;-51
2023/08/05 23:20:14;;;;;;;4.23;3.73;;;15.90;1.00;;;;;;5113722;28;20693;-54
2023/08/05 23:22:42;;;;;;;3.93;3.60;;;15.90;1.00;;;;;;5114236;28;20177;-53
2023/08/05 23:25:08;;;;;;;4.30;3.37;;;15.80;25.00;;;;;;5114252;28;20686;-53
2023/08/05 23:27:33;;;;;;;3.83;3.43;;;15.80;1.00;;;;;;5114536;28;20446;-53
2023/08/05 23:29:59;;;;;;;3.40;3.10;;;15.80;1.00;;;;;;5114542;28;20211;-54
2023/08/05 23:32:24;;;;;;;3.80;3.40;;;15.80;99.90;;;;;;5114237;28;20713;-53
2023/08/05 23:34:50;;;;;;;4.10;3.50;;;15.70;99.90;;;;;;5114274;28;20668;-54
2023/08/05 23:37:16;;;;;;;3.80;3.50;;;15.70;99.90;;;;;;5114388;28;20179;-53
2023/08/05 23:39:41;;;;;;;3.93;3.63;;;15.70;99.90;;;;;;5114089;28;20706;-52
2023/08/05 23:42:07;;;;;;;4.00;3.57;;;15.70;99.90;;;;;;5113507;28;20530;-53
2023/08/05 23:44:32;;;;;;;3.67;3.30;;;15.60;1.00;;;;;;5114108;28;20202;-53
2023/08/05 23:46:58;;;;;;;3.90;2.70;;;15.60;99.90;;;;;;5114239;28;20214;-53
2023/08/05 23:49:23;;;;;;;3.57;2.80;;;15.60;92.20;;;;;;5114250;28;20658;-54
2023/08/05 23:51:49;;;;;;;3.60;2.90;;;15.50;23.40;;;;;;5113729;28;20188;-55
2023/08/05 23:54:14;;;;;;;3.60;3.27;;;15.50;28.70;;;;;;5113875;28;20183;-53
2023/08/05 23:56:40;;;;;;;6.23;3.60;;;15.50;67.30;;;;;;5113580;28;20226;-52
2023/08/05 23:59:06;;;;;;;4.27;3.33;;;15.40;99.90;;;;;;5113891;28;20547;-54
